sensor_id;sensor_type;location;lat;lon;timestamp;pressure;altitude;pressure_sealevel;temperature;humidity
21361;BME280;10839;43.206;23.550;2023-03-04T00:02:00;97269.47;;;5.63;100.00
21361;BME280;10839;43.206;23.550;2023-03-04T00:04:26;97272.19;;;5.71;100.00
21361;BME280;10839;43.206;23.550;2023-03-04T00:06:52;97271.03;;;5.73;100.00
21361;BME280;10839;43.206;23.550;2023-03-04T00:09:18;97270.34;;;5.63;100.00
21361;BME280;10839;43.206;23.550;2023-03-04T00:11:44;97267.88;;;5.78;100.00
21361;BME280;10839;43.206;23.550;2023-03-04T00:14:10;97270.91;;;5.83;100.00
21361;BME280;10839;43.206;23.550;2023-03-04T00:16:36;97271.00;;;5.57;100.00
21361;BME280;10839;43.206;23.550;2023-03-04T00:19:02;97269.50;;;5.71;100.00
21361;BME280;10839;43.206;23.550;2023-03-04T00:21:28;97267.28;;;5.84;100.00
21361;BME280;10839;43.206;23.550;2023-03-04T00:23:54;97265.19;;;5.70;100.00
21361;BME280;10839;43.206;23.550;2023-03-04T00:26:19;97265.25;;;5.86;100.00
21361;BME280;10839;43.206;23.550;2023-03-04T00:28:46;97263.09;;;5.89;100.00
21361;BME280;10839;43.206;23.550;2023-03-04T00:31:12;97263.63;;;6.01;100.00
21361;BME280;10839;43.206;23.550;2023-03-04T00:33:38;97255.94;;;5.90;100.00
21361;BME280;10839;43.206;23.550;2023-03-04T00:36:05;97252.66;;;6.20;100.00
21361;BME280;10839;43.206;23.550;2023-03-04T00:38:31;97263.66;;;6.17;100.00
21361;BME280;10839;43.206;23.550;2023-03-04T00:40:57;97256.94;;;5.97;100.00
21361;BME280;10839;43.206;23.550;2023-03-04T00:43:22;97259.28;;;6.08;100.00
21361;BME280;10839;43.206;23.550;2023-03-04T00:45:48;97264.28;;;5.95;100.00
21361;BME280;10839;43.206;23.550;2023-03-04T00:48:14;97264.53;;;5.76;100.00
21361;BME280;10839;43.206;23.550;2023-03-04T00:50:41;97260.75;;;5.86;100.00
21361;BME280;10839;43.206;23.550;2023-03-04T00:53:08;97260.25;;;5.83;100.00
21361;BME280;10839;43.206;23.550;2023-03-04T00:55:35;97265.38;;;5.76;100.00
21361;BME280;10839;43.206;23.550;2023-03-04T00:58:01;97259.00;;;5.69;100.00
21361;BME280;10839;43.206;23.550;2023-03-04T01:00:27;97261.31;;;5.64;100.00
21361;BME280;10839;43.206;23.550;2023-03-04T01:02:53;97252.38;;;5.40;100.00
21361;BME280;10839;43.206;23.550;2023-03-04T01:05:19;97243.78;;;5.54;100.00
21361;BME280;10839;43.206;23.550;2023-03-04T01:07:45;97246.34;;;5.71;100.00
21361;BME280;10839;43.206;23.550;2023-03-04T01:10:12;97241.84;;;5.72;100.00
21361;BME280;10839;43.206;23.550;2023-03-04T01:12:41;97239.84;;;5.74;100.00
21361;BME280;10839;43.206;23.550;2023-03-04T01:15:10;97246.25;;;5.89;100.00
21361;BME280;10839;43.206;23.550;2023-03-04T01:17:39;97234.91;;;5.87;100.00
21361;BME280;10839;43.206;23.550;2023-03-04T01:20:06;97227.88;;;5.86;100.00
21361;BME280;10839;43.206;23.550;2023-03-04T01:22:32;97228.25;;;6.07;100.00
21361;BME280;10839;43.206;23.550;2023-03-04T01:24:58;97231.78;;;6.23;100.00
21361;BME280;10839;43.206;23.550;2023-03-04T01:27:25;97221.91;;;6.16;100.00
21361;BME280;10839;43.206;23.550;2023-03-04T01:29:51;97213.06;;;6.31;100.00
21361;BME280;10839;43.206;23.550;2023-03-04T01:32:17;97224.94;;;6.37;100.00
21361;BME280;10839;43.206;23.550;2023-03-04T01:34:42;97218.53;;;5.90;100.00
21361;BME280;10839;43.206;23.550;2023-03-04T01:37:09;97217.38;;;5.92;100.00
21361;BME280;10839;43.206;23.550;2023-03-04T01:39:34;97211.13;;;5.76;100.00
21361;BME280;10839;43.206;23.550;2023-03-04T01:42:00;97210.44;;;5.66;100.00
21361;BME280;10839;43.206;23.550;2023-03-04T01:44:26;97208.53;;;5.92;100.00
21361;BME280;10839;43.206;23.550;2023-03-04T01:46:55;97207.53;;;6.01;100.00
21361;BME280;10839;43.206;23.550;2023-03-04T01:49:23;97212.38;;;5.89;100.00
21361;BME280;10839;43.206;23.550;2023-03-04T01:51:53;97201.44;;;5.67;100.00
21361;BME280;10839;43.206;23.550;2023-03-04T01:54:21;97208.41;;;5.52;100.00
21361;BME280;10839;43.206;23.550;2023-03-04T01:56:48;97206.06;;;5.41;100.00
21361;BME280;10839;43.206;23.550;2023-03-04T01:59:23;97209.41;;;5.51;100.00
21361;BME280;10839;43.206;23.550;2023-03-04T02:01:53;97209.41;;;5.51;100.00
21361;BME280;10839;43.206;23.550;2023-03-04T02:04:22;97210.34;;;5.34;100.00
21361;BME280;10839;43.206;23.550;2023-03-04T02:06:50;97217.53;;;5.41;100.00
21361;BME280;10839;43.206;23.550;2023-03-04T02:09:18;97215.53;;;5.35;100.00
21361;BME280;10839;43.206;23.550;2023-03-04T02:11:45;97219.72;;;5.46;100.00
21361;BME280;10839;43.206;23.550;2023-03-04T02:14:12;97225.06;;;5.46;100.00
21361;BME280;10839;43.206;23.550;2023-03-04T02:16:38;97229.47;;;5.71;100.00
21361;BME280;10839;43.206;23.550;2023-03-04T02:21:39;97227.44;;;5.57;100.00
21361;BME280;10839;43.206;23.550;2023-03-04T02:24:23;97234.53;;;5.82;100.00
21361;BME280;10839;43.206;23.550;2023-03-04T02:26:52;97236.16;;;5.75;100.00
21361;BME280;10839;43.206;23.550;2023-03-04T02:29:18;97226.78;;;5.71;100.00
21361;BME280;10839;43.206;23.550;2023-03-04T02:31:46;97229.56;;;5.87;100.00
21361;BME280;10839;43.206;23.550;2023-03-04T02:36:42;97240.81;;;5.65;100.00
21361;BME280;10839;43.206;23.550;2023-03-04T02:41:44;97225.91;;;6.04;100.00
21361;BME280;10839;43.206;23.550;2023-03-04T02:44:30;97229.91;;;6.08;100.00
21361;BME280;10839;43.206;23.550;2023-03-04T02:46:57;97233.78;;;6.21;100.00
21361;BME280;10839;43.206;23.550;2023-03-04T02:49:26;97224.09;;;6.28;100.00
21361;BME280;10839;43.206;23.550;2023-03-04T02:52:18;97222.59;;;6.26;100.00
21361;BME280;10839;43.206;23.550;2023-03-04T02:54:44;97217.56;;;6.31;100.00
21361;BME280;10839;43.206;23.550;2023-03-04T02:57:11;97225.59;;;6.39;100.00
21361;BME280;10839;43.206;23.550;2023-03-04T02:59:41;97228.94;;;6.25;100.00
21361;BME280;10839;43.206;23.550;2023-03-04T03:02:10;97221.94;;;6.40;100.00
21361;BME280;10839;43.206;23.550;2023-03-04T03:04:37;97218.06;;;6.50;100.00
21361;BME280;10839;43.206;23.550;2023-03-04T03:07:07;97228.28;;;6.55;100.00
21361;BME280;10839;43.206;23.550;2023-03-04T03:09:34;97217.09;;;6.52;100.00
21361;BME280;10839;43.206;23.550;2023-03-04T03:12:01;97209.53;;;6.71;100.00
21361;BME280;10839;43.206;23.550;2023-03-04T03:14:29;97215.25;;;6.52;100.00
21361;BME280;10839;43.206;23.550;2023-03-04T03:16:55;97215.56;;;6.49;100.00
21361;BME280;10839;43.206;23.550;2023-03-04T03:19:21;97210.88;;;6.59;100.00
21361;BME280;10839;43.206;23.550;2023-03-04T03:21:47;97210.91;;;6.43;100.00
21361;BME280;10839;43.206;23.550;2023-03-04T03:24:13;97217.59;;;6.47;100.00
21361;BME280;10839;43.206;23.550;2023-03-04T03:26:39;97215.56;;;6.65;100.00
21361;BME280;10839;43.206;23.550;2023-03-04T03:29:07;97221.88;;;6.72;100.00
21361;BME280;10839;43.206;23.550;2023-03-04T03:31:32;97216.25;;;6.43;100.00
21361;BME280;10839;43.206;23.550;2023-03-04T03:33:58;97214.56;;;6.58;100.00
21361;BME280;10839;43.206;23.550;2023-03-04T03:36:25;97220.22;;;6.79;100.00
21361;BME280;10839;43.206;23.550;2023-03-04T03:38:52;97221.56;;;6.59;100.00
21361;BME280;10839;43.206;23.550;2023-03-04T03:41:18;97217.56;;;6.63;100.00
21361;BME280;10839;43.206;23.550;2023-03-04T03:43:44;97214.88;;;6.71;100.00
21361;BME280;10839;43.206;23.550;2023-03-04T03:46:10;97214.88;;;6.71;100.00
21361;BME280;10839;43.206;23.550;2023-03-04T03:48:36;97224.88;;;6.77;100.00
21361;BME280;10839;43.206;23.550;2023-03-04T03:51:02;97221.19;;;6.94;100.00
21361;BME280;10839;43.206;23.550;2023-03-04T03:53:28;97214.53;;;6.74;100.00
21361;BME280;10839;43.206;23.550;2023-03-04T03:55:54;97220.56;;;6.68;100.00
21361;BME280;10839;43.206;23.550;2023-03-04T03:58:20;97214.88;;;6.71;100.00
21361;BME280;10839;43.206;23.550;2023-03-04T04:00:46;97214.91;;;6.47;100.00
21361;BME280;10839;43.206;23.550;2023-03-04T04:03:14;97205.88;;;6.56;100.00
21361;BME280;10839;43.206;23.550;2023-03-04T04:05:42;97215.91;;;6.70;100.00
21361;BME280;10839;43.206;23.550;2023-03-04T04:08:15;97209.56;;;6.39;100.00
21361;BME280;10839;43.206;23.550;2023-03-04T04:10:41;97206.91;;;6.47;100.00
21361;BME280;10839;43.206;23.550;2023-03-04T04:13:08;97206.88;;;6.63;100.00
21361;BME280;10839;43.206;23.550;2023-03-04T04:15:35;97204.53;;;6.44;100.00
21361;BME280;10839;43.206;23.550;2023-03-04T04:18:04;97204.88;;;6.65;100.00
21361;BME280;10839;43.206;23.550;2023-03-04T04:20:30;97200.84;;;6.85;100.00
21361;BME280;10839;43.206;23.550;2023-03-04T04:22:56;97200.34;;;6.82;100.00
21361;BME280;10839;43.206;23.550;2023-03-04T04:25:22;97200.16;;;6.67;100.00
21361;BME280;10839;43.206;23.550;2023-03-04T04:27:48;97192.16;;;6.75;100.00
21361;BME280;10839;43.206;23.550;2023-03-04T04:30:14;97201.16;;;6.82;100.00
21361;BME280;10839;43.206;23.550;2023-03-04T04:32:40;97191.81;;;6.62;100.00
21361;BME280;10839;43.206;23.550;2023-03-04T04:35:06;97196.00;;;6.73;100.00
21361;BME280;10839;43.206;23.550;2023-03-04T04:37:32;97198.50;;;6.74;100.00
21361;BME280;10839;43.206;23.550;2023-03-04T04:39:58;97200.88;;;6.53;100.00
21361;BME280;10839;43.206;23.550;2023-03-04T04:42:24;97207.53;;;6.57;100.00
21361;BME280;10839;43.206;23.550;2023-03-04T04:44:50;97203.19;;;6.64;100.00
21361;BME280;10839;43.206;23.550;2023-03-04T04:47:20;97200.19;;;6.59;100.00
21361;BME280;10839;43.206;23.550;2023-03-04T04:49:46;97201.53;;;6.63;100.00
21361;BME280;10839;43.206;23.550;2023-03-04T04:52:12;97197.84;;;6.56;100.00
21361;BME280;10839;43.206;23.550;2023-03-04T04:54:38;97191.84;;;6.46;100.00
21361;BME280;10839;43.206;23.550;2023-03-04T04:57:03;97203.53;;;6.61;100.00
21361;BME280;10839;43.206;23.550;2023-03-04T04:59:30;97205.84;;;6.72;100.00
21361;BME280;10839;43.206;23.550;2023-03-04T05:01:56;97204.72;;;6.59;100.00
21361;BME280;10839;43.206;23.550;2023-03-04T05:04:24;97212.91;;;6.65;100.00
21361;BME280;10839;43.206;23.550;2023-03-04T05:06:49;97215.03;;;6.78;100.00
21361;BME280;10839;43.206;23.550;2023-03-04T05:09:15;97218.47;;;7.02;100.00
21361;BME280;10839;43.206;23.550;2023-03-04T05:11:41;97219.19;;;6.96;100.00
21361;BME280;10839;43.206;23.550;2023-03-04T05:14:07;97217.31;;;7.05;100.00
21361;BME280;10839;43.206;23.550;2023-03-04T05:16:33;97214.69;;;6.81;100.00
21361;BME280;10839;43.206;23.550;2023-03-04T05:18:58;97224.72;;;6.71;100.00
21361;BME280;10839;43.206;23.550;2023-03-04T05:21:24;97216.88;;;6.69;100.00
21361;BME280;10839;43.206;23.550;2023-03-04T05:23:50;97217.53;;;6.87;100.00
21361;BME280;10839;43.206;23.550;2023-03-04T05:26:17;97221.88;;;6.88;100.00
21361;BME280;10839;43.206;23.550;2023-03-04T05:28:44;97221.53;;;6.91;100.00
21361;BME280;10839;43.206;23.550;2023-03-04T05:31:11;97227.22;;;6.72;100.00
21361;BME280;10839;43.206;23.550;2023-03-04T05:33:37;97230.25;;;6.61;100.00
21361;BME280;10839;43.206;23.550;2023-03-04T05:36:04;97217.72;;;6.70;100.00
21361;BME280;10839;43.206;23.550;2023-03-04T05:38:30;97240.28;;;6.75;100.00
21361;BME280;10839;43.206;23.550;2023-03-04T05:40:58;97228.25;;;6.63;100.00
21361;BME280;10839;43.206;23.550;2023-03-04T05:43:26;97236.13;;;6.65;100.00
21361;BME280;10839;43.206;23.550;2023-03-04T05:45:53;97240.44;;;6.58;100.00
21361;BME280;10839;43.206;23.550;2023-03-04T05:48:19;97231.28;;;6.52;100.00
21361;BME280;10839;43.206;23.550;2023-03-04T05:50:45;97244.13;;;6.73;100.00
21361;BME280;10839;43.206;23.550;2023-03-04T05:53:11;97237.28;;;6.78;100.00
21361;BME280;10839;43.206;23.550;2023-03-04T05:55:37;97242.28;;;6.49;100.00
21361;BME280;10839;43.206;23.550;2023-03-04T05:58:03;97248.31;;;6.59;100.00
21361;BME280;10839;43.206;23.550;2023-03-04T06:00:29;97240.63;;;6.64;100.00
21361;BME280;10839;43.206;23.550;2023-03-04T06:02:55;97252.66;;;6.68;100.00
21361;BME280;10839;43.206;23.550;2023-03-04T06:05:20;97243.97;;;6.58;100.00
21361;BME280;10839;43.206;23.550;2023-03-04T06:07:46;97254.97;;;6.95;100.00
21361;BME280;10839;43.206;23.550;2023-03-04T06:10:17;97254.66;;;6.66;100.00
21361;BME280;10839;43.206;23.550;2023-03-04T06:12:43;97257.97;;;7.00;100.00
21361;BME280;10839;43.206;23.550;2023-03-04T06:15:10;97252.78;;;7.45;100.00
21361;BME280;10839;43.206;23.550;2023-03-04T06:17:37;97253.38;;;8.33;100.00
21361;BME280;10839;43.206;23.550;2023-03-04T06:20:04;97257.69;;;9.45;100.00
21361;BME280;10839;43.206;23.550;2023-03-04T06:22:32;97265.28;;;8.90;100.00
21361;BME280;10839;43.206;23.550;2023-03-04T06:24:59;97260.53;;;8.63;100.00
21361;BME280;10839;43.206;23.550;2023-03-04T06:27:25;97256.31;;;8.83;100.00
21361;BME280;10839;43.206;23.550;2023-03-04T06:29:51;97259.50;;;9.01;100.00
21361;BME280;10839;43.206;23.550;2023-03-04T06:32:17;97265.28;;;8.53;100.00
21361;BME280;10839;43.206;23.550;2023-03-04T06:34:43;97265.91;;;8.10;100.00
21361;BME280;10839;43.206;23.550;2023-03-04T06:37:08;97263.97;;;8.49;100.00
21361;BME280;10839;43.206;23.550;2023-03-04T06:39:34;97269.66;;;8.91;100.00
21361;BME280;10839;43.206;23.550;2023-03-04T06:42:01;97258.38;;;8.36;100.00
21361;BME280;10839;43.206;23.550;2023-03-04T06:44:26;97268.72;;;10.72;100.00
21361;BME280;10839;43.206;23.550;2023-03-04T06:46:52;97269.84;;;10.20;100.00
21361;BME280;10839;43.206;23.550;2023-03-04T06:49:18;97263.06;;;9.45;100.00
21361;BME280;10839;43.206;23.550;2023-03-04T06:51:44;97269.47;;;9.44;100.00
21361;BME280;10839;43.206;23.550;2023-03-04T06:54:11;97275.63;;;10.60;100.00
21361;BME280;10839;43.206;23.550;2023-03-04T06:56:37;97272.59;;;12.07;100.00
21361;BME280;10839;43.206;23.550;2023-03-04T06:59:02;97270.28;;;12.64;94.93
21361;BME280;10839;43.206;23.550;2023-03-04T07:01:28;97267.44;;;13.25;90.26
21361;BME280;10839;43.206;23.550;2023-03-04T07:03:55;97259.00;;;13.98;84.01
21361;BME280;10839;43.206;23.550;2023-03-04T07:06:24;97259.50;;;13.69;84.61
21361;BME280;10839;43.206;23.550;2023-03-04T07:08:52;97260.22;;;14.90;80.42
21361;BME280;10839;43.206;23.550;2023-03-04T07:11:19;97255.47;;;15.60;73.56
21361;BME280;10839;43.206;23.550;2023-03-04T07:13:47;97250.59;;;17.00;69.60
21361;BME280;10839;43.206;23.550;2023-03-04T07:16:16;97250.09;;;16.91;68.08
21361;BME280;10839;43.206;23.550;2023-03-04T07:18:43;97257.53;;;17.48;64.40
21361;BME280;10839;43.206;23.550;2023-03-04T07:21:09;97244.47;;;17.27;65.86
21361;BME280;10839;43.206;23.550;2023-03-04T07:23:36;97234.94;;;18.73;60.15
21361;BME280;10839;43.206;23.550;2023-03-04T07:26:02;97242.59;;;16.75;62.77
21361;BME280;10839;43.206;23.550;2023-03-04T07:28:28;97244.75;;;16.37;65.54
21361;BME280;10839;43.206;23.550;2023-03-04T07:30:54;97233.81;;;18.30;57.48
21361;BME280;10839;43.206;23.550;2023-03-04T07:33:20;97236.13;;;17.87;59.55
21361;BME280;10839;43.206;23.550;2023-03-04T07:35:46;97230.59;;;17.70;56.87
21361;BME280;10839;43.206;23.550;2023-03-04T07:38:12;97234.84;;;16.13;63.55
21361;BME280;10839;43.206;23.550;2023-03-04T07:40:38;97238.63;;;16.12;63.48
21361;BME280;10839;43.206;23.550;2023-03-04T07:43:04;97236.94;;;15.75;66.37
21361;BME280;10839;43.206;23.550;2023-03-04T07:45:30;97245.00;;;13.05;76.75
21361;BME280;10839;43.206;23.550;2023-03-04T07:47:57;97236.25;;;13.42;78.99
21361;BME280;10839;43.206;23.550;2023-03-04T07:50:23;97235.41;;;16.33;68.88
21361;BME280;10839;43.206;23.550;2023-03-04T07:52:49;97241.69;;;15.12;72.34
21361;BME280;10839;43.206;23.550;2023-03-04T07:55:16;97235.06;;;17.88;64.27
21361;BME280;10839;43.206;23.550;2023-03-04T07:57:44;97240.03;;;19.59;57.20
21361;BME280;10839;43.206;23.550;2023-03-04T08:00:13;97231.06;;;16.50;62.87
21361;BME280;10839;43.206;23.550;2023-03-04T08:02:40;97242.66;;;14.93;70.64
21361;BME280;10839;43.206;23.550;2023-03-04T08:05:06;97236.59;;;13.71;74.20
21361;BME280;10839;43.206;23.550;2023-03-04T08:07:33;97227.16;;;13.04;79.30
21361;BME280;10839;43.206;23.550;2023-03-04T08:09:59;97233.63;;;12.16;85.87
21361;BME280;10839;43.206;23.550;2023-03-04T08:12:25;97226.56;;;11.68;91.60
21361;BME280;10839;43.206;23.550;2023-03-04T08:14:52;97227.50;;;12.61;86.84
21361;BME280;10839;43.206;23.550;2023-03-04T08:17:18;97225.31;;;12.11;84.87
21361;BME280;10839;43.206;23.550;2023-03-04T08:19:44;97208.97;;;11.72;89.06
21361;BME280;10839;43.206;23.550;2023-03-04T08:22:10;97220.88;;;12.70;85.59
21361;BME280;10839;43.206;23.550;2023-03-04T08:24:36;97214.50;;;14.69;72.00
21361;BME280;10839;43.206;23.550;2023-03-04T08:27:03;97213.91;;;13.85;71.44
21361;BME280;10839;43.206;23.550;2023-03-04T08:29:29;97217.22;;;14.69;71.11
21361;BME280;10839;43.206;23.550;2023-03-04T08:31:55;97216.50;;;15.72;66.58
21361;BME280;10839;43.206;23.550;2023-03-04T08:34:25;97224.59;;;13.41;72.58
21361;BME280;10839;43.206;23.550;2023-03-04T08:36:52;97222.53;;;12.78;75.24
21361;BME280;10839;43.206;23.550;2023-03-04T08:39:19;97209.09;;;13.81;71.97
21361;BME280;10839;43.206;23.550;2023-03-04T08:41:46;97210.94;;;14.38;69.04
21361;BME280;10839;43.206;23.550;2023-03-04T08:44:12;97200.06;;;13.43;72.76
21361;BME280;10839;43.206;23.550;2023-03-04T08:46:40;97208.03;;;13.12;74.39
21361;BME280;10839;43.206;23.550;2023-03-04T08:49:09;97198.00;;;13.38;72.78
21361;BME280;10839;43.206;23.550;2023-03-04T08:51:35;97200.72;;;12.93;74.83
21361;BME280;10839;43.206;23.550;2023-03-04T08:54:02;97195.09;;;12.48;75.73
21361;BME280;10839;43.206;23.550;2023-03-04T08:56:29;97196.78;;;12.88;75.89
21361;BME280;10839;43.206;23.550;2023-03-04T08:58:55;97208.00;;;12.72;76.97
21361;BME280;10839;43.206;23.550;2023-03-04T09:01:22;97202.72;;;12.12;80.83
21361;BME280;10839;43.206;23.550;2023-03-04T09:03:48;97195.81;;;12.03;82.72
21361;BME280;10839;43.206;23.550;2023-03-04T09:06:15;97193.38;;;12.28;82.20
21361;BME280;10839;43.206;23.550;2023-03-04T09:08:42;97195.97;;;11.82;81.79
21361;BME280;10839;43.206;23.550;2023-03-04T09:11:10;97189.13;;;11.86;83.61
21361;BME280;10839;43.206;23.550;2023-03-04T09:13:36;97188.00;;;12.34;81.51
21361;BME280;10839;43.206;23.550;2023-03-04T09:16:07;97189.13;;;11.86;81.65
21361;BME280;10839;43.206;23.550;2023-03-04T09:18:33;97201.75;;;11.45;83.70
21361;BME280;10839;43.206;23.550;2023-03-04T09:20:59;97185.19;;;11.48;85.92
21361;BME280;10839;43.206;23.550;2023-03-04T09:23:24;97189.19;;;11.58;85.25
21361;BME280;10839;43.206;23.550;2023-03-04T09:25:50;97192.94;;;11.23;89.20
21361;BME280;10839;43.206;23.550;2023-03-04T09:28:17;97195.72;;;11.43;88.77
21361;BME280;10839;43.206;23.550;2023-03-04T09:30:43;97190.72;;;11.68;88.58
21361;BME280;10839;43.206;23.550;2023-03-04T09:33:09;97192.63;;;11.39;91.04
21361;BME280;10839;43.206;23.550;2023-03-04T09:35:35;97181.41;;;11.36;91.50
21361;BME280;10839;43.206;23.550;2023-03-04T09:38:02;97182.13;;;11.51;89.09
21361;BME280;10839;43.206;23.550;2023-03-04T09:40:44;97190.28;;;11.30;88.47
21361;BME280;10839;43.206;23.550;2023-03-04T09:43:20;97177.63;;;11.30;91.89
21361;BME280;10839;43.206;23.550;2023-03-04T09:45:53;97178.34;;;11.86;90.49
21361;BME280;10839;43.206;23.550;2023-03-04T09:48:22;97169.09;;;11.61;90.03
21361;BME280;10839;43.206;23.550;2023-03-04T09:51:40;97181.78;;;11.33;92.81
21361;BME280;10839;43.206;23.550;2023-03-04T09:56:29;97177.38;;;11.19;91.26
21361;BME280;10839;43.206;23.550;2023-03-04T10:01:47;97166.66;;;11.66;89.57
21361;BME280;10839;43.206;23.550;2023-03-04T10:06:56;97168.97;;;11.35;93.45
21361;BME280;10839;43.206;23.550;2023-03-04T10:12:20;97154.03;;;11.32;91.55
21361;BME280;10839;43.206;23.550;2023-03-04T10:17:23;97151.75;;;11.70;88.06
21361;BME280;10839;43.206;23.550;2023-03-04T10:20:04;97138.78;;;11.46;88.77
21361;BME280;10839;43.206;23.550;2023-03-04T10:22:52;97139.09;;;11.64;88.54
21361;BME280;10839;43.206;23.550;2023-03-04T10:25:24;97141.03;;;11.96;84.35
21361;BME280;10839;43.206;23.550;2023-03-04T10:32:55;97130.66;;;11.93;83.49
21361;BME280;10839;43.206;23.550;2023-03-04T10:35:25;97121.75;;;11.39;86.10
21361;BME280;10839;43.206;23.550;2023-03-04T10:37:52;97118.06;;;11.53;87.06
21361;BME280;10839;43.206;23.550;2023-03-04T10:40:24;97121.59;;;12.46;81.89
21361;BME280;10839;43.206;23.550;2023-03-04T10:42:53;97111.19;;;12.04;81.83
21361;BME280;10839;43.206;23.550;2023-03-04T10:45:25;97104.97;;;11.97;83.03
21361;BME280;10839;43.206;23.550;2023-03-04T10:47:55;97108.72;;;12.55;82.05
21361;BME280;10839;43.206;23.550;2023-03-04T10:50:25;97112.41;;;11.89;84.20
21361;BME280;10839;43.206;23.550;2023-03-04T10:52:53;97100.13;;;11.80;86.08
21361;BME280;10839;43.206;23.550;2023-03-04T10:55:29;97091.91;;;12.46;82.15
21361;BME280;10839;43.206;23.550;2023-03-04T10:58:06;97094.97;;;11.85;77.80
21361;BME280;10839;43.206;23.550;2023-03-04T11:00:37;97087.91;;;11.77;76.43
21361;BME280;10839;43.206;23.550;2023-03-04T11:05:51;97084.63;;;12.01;72.06
21361;BME280;10839;43.206;23.550;2023-03-04T11:08:23;97076.75;;;12.06;75.47
21361;BME280;10839;43.206;23.550;2023-03-04T11:10:49;97069.50;;;12.39;73.67
21361;BME280;10839;43.206;23.550;2023-03-04T11:13:19;97062.66;;;12.04;70.89
21361;BME280;10839;43.206;23.550;2023-03-04T11:15:58;97064.72;;;12.09;72.28
21361;BME280;10839;43.206;23.550;2023-03-04T11:21:02;97053.50;;;12.44;71.74
21361;BME280;10839;43.206;23.550;2023-03-04T11:23:53;97051.84;;;12.43;69.75
21361;BME280;10839;43.206;23.550;2023-03-04T11:26:35;97042.38;;;13.62;67.25
21361;BME280;10839;43.206;23.550;2023-03-04T11:29:17;97045.88;;;13.25;67.33
21361;BME280;10839;43.206;23.550;2023-03-04T11:31:49;97034.38;;;12.78;69.17
21361;BME280;10839;43.206;23.550;2023-03-04T11:36:56;97031.34;;;13.26;66.52
21361;BME280;10839;43.206;23.550;2023-03-04T11:42:02;97029.88;;;13.61;69.20
21361;BME280;10839;43.206;23.550;2023-03-04T11:44:30;97018.47;;;13.59;67.37
21361;BME280;10839;43.206;23.550;2023-03-04T11:55:43;97002.31;;;13.46;68.55
21361;BME280;10839;43.206;23.550;2023-03-04T11:58:37;96986.50;;;14.36;64.83
21361;BME280;10839;43.206;23.550;2023-03-04T12:01:09;97000.00;;;14.11;66.10
21361;BME280;10839;43.206;23.550;2023-03-04T12:04:01;96993.31;;;14.99;62.97
21361;BME280;10839;43.206;23.550;2023-03-04T12:23:16;96975.66;;;14.36;63.92
21361;BME280;10839;43.206;23.550;2023-03-04T12:26:15;96977.28;;;13.88;65.27
21361;BME280;10839;43.206;23.550;2023-03-04T12:28:52;96962.16;;;14.54;63.67
21361;BME280;10839;43.206;23.550;2023-03-04T12:31:40;96971.31;;;14.10;64.05
21361;BME280;10839;43.206;23.550;2023-03-04T12:37:11;96960.56;;;14.47;63.84
21361;BME280;10839;43.206;23.550;2023-03-04T12:40:07;96957.94;;;14.16;64.08
21361;BME280;10839;43.206;23.550;2023-03-04T12:42:59;96949.50;;;14.30;65.73
21361;BME280;10839;43.206;23.550;2023-03-04T12:46:03;96949.22;;;14.56;65.37
21361;BME280;10839;43.206;23.550;2023-03-04T12:54:50;96936.59;;;13.76;65.56
21361;BME280;10839;43.206;23.550;2023-03-04T12:57:23;96941.91;;;13.34;69.17
21361;BME280;10839;43.206;23.550;2023-03-04T13:00:08;96934.34;;;13.98;67.43
21361;BME280;10839;43.206;23.550;2023-03-04T13:08:41;96919.28;;;13.84;68.29
21361;BME280;10839;43.206;23.550;2023-03-04T13:16:47;96919.06;;;13.85;70.33
21361;BME280;10839;43.206;23.550;2023-03-04T13:22:32;96908.53;;;13.46;71.23
21361;BME280;10839;43.206;23.550;2023-03-04T13:25:32;96901.44;;;13.52;70.86
21361;BME280;10839;43.206;23.550;2023-03-04T13:43:55;96892.47;;;13.27;72.16
21361;BME280;10839;43.206;23.550;2023-03-04T13:54:29;96880.78;;;13.02;73.51
21361;BME280;10839;43.206;23.550;2023-03-04T13:59:31;96878.44;;;13.12;72.97
21361;BME280;10839;43.206;23.550;2023-03-04T14:04:42;96870.81;;;12.51;77.60
21361;BME280;10839;43.206;23.550;2023-03-04T14:07:38;96873.19;;;12.79;76.43
21361;BME280;10839;43.206;23.550;2023-03-04T14:10:22;96867.69;;;12.54;77.73
21361;BME280;10839;43.206;23.550;2023-03-04T14:12:55;96866.09;;;12.84;76.13
21361;BME280;10839;43.206;23.550;2023-03-04T14:15:30;96866.88;;;12.92;74.71
21361;BME280;10839;43.206;23.550;2023-03-04T14:18:01;96863.41;;;12.40;77.50
21361;BME280;10839;43.206;23.550;2023-03-04T14:20:34;96864.53;;;12.70;76.79
21361;BME280;10839;43.206;23.550;2023-03-04T14:23:03;96864.53;;;12.70;75.33
21361;BME280;10839;43.206;23.550;2023-03-04T14:25:31;96868.78;;;12.40;76.84
21361;BME280;10839;43.206;23.550;2023-03-04T14:28:15;96859.19;;;12.57;76.39
21361;BME280;10839;43.206;23.550;2023-03-04T14:30:50;96862.69;;;12.58;75.36
21361;BME280;10839;43.206;23.550;2023-03-04T14:33:20;96854.69;;;12.38;76.75
21361;BME280;10839;43.206;23.550;2023-03-04T14:35:48;96845.50;;;12.52;76.40
21361;BME280;10839;43.206;23.550;2023-03-04T14:38:27;96853.81;;;12.44;78.57
21361;BME280;10839;43.206;23.550;2023-03-04T14:43:27;96851.31;;;12.56;75.36
21361;BME280;10839;43.206;23.550;2023-03-04T14:45:55;96841.06;;;12.20;75.75
21361;BME280;10839;43.206;23.550;2023-03-04T14:48:32;96846.06;;;12.10;76.85
21361;BME280;10839;43.206;23.550;2023-03-04T14:51:00;96848.16;;;12.02;76.48
21361;BME280;10839;43.206;23.550;2023-03-04T14:53:31;96850.44;;;12.05;77.37
21361;BME280;10839;43.206;23.550;2023-03-04T14:56:04;96842.78;;;11.89;77.26
21361;BME280;10839;43.206;23.550;2023-03-04T14:58:32;96845.72;;;11.87;77.79